createdAt,value
2022-12-04T00:01:27.854Z,12.40
2022-12-04T00:03:58.012Z,13.80
2022-12-04T00:06:29.047Z,11.70
2022-12-04T00:08:57.966Z,12.60
2022-12-04T00:11:31.304Z,13.40
2022-12-04T00:14:07.632Z,13.60
2022-12-04T00:16:37.865Z,13.90
2022-12-04T00:19:05.824Z,13.30
2022-12-04T00:21:36.668Z,13.40
2022-12-04T00:26:33.119Z,17.20
2022-12-04T00:29:01.300Z,15.20
2022-12-04T00:31:30.644Z,16.60
2022-12-04T00:34:00.378Z,17.00
2022-12-04T00:36:29.658Z,13.70
2022-12-04T00:38:59.799Z,14.00
2022-12-04T00:41:31.999Z,12.10
2022-12-04T00:44:04.102Z,11.30
2022-12-04T00:46:31.922Z,12.90
2022-12-04T00:49:17.607Z,13.40
2022-12-04T00:51:45.607Z,12.10
2022-12-04T00:54:15.035Z,13.30
2022-12-04T00:56:43.156Z,12.30
2022-12-04T00:59:10.996Z,15.80
2022-12-04T01:01:39.408Z,14.00
2022-12-04T01:04:07.491Z,18.50
2022-12-04T01:06:35.611Z,12.40
2022-12-04T01:09:05.991Z,16.20
2022-12-04T01:11:34.174Z,17.80
2022-12-04T01:14:02.623Z,21.50
2022-12-04T01:16:39.972Z,20.90
2022-12-04T01:19:10.063Z,16.60
2022-12-04T01:21:39.462Z,19.70
2022-12-04T01:24:08.261Z,22.60
2022-12-04T01:26:36.180Z,20.40
2022-12-04T01:29:04.092Z,21.00
2022-12-04T01:31:32.221Z,18.90
2022-12-04T01:34:02.591Z,18.30
2022-12-04T01:36:30.668Z,18.90
2022-12-04T01:38:58.963Z,17.60
2022-12-04T01:41:30.149Z,23.10
2022-12-04T01:44:08.532Z,14.60
2022-12-04T01:46:36.375Z,13.40
2022-12-04T01:49:06.339Z,13.10
2022-12-04T01:51:41.670Z,13.40
2022-12-04T01:54:15.056Z,13.70
2022-12-04T01:56:51.011Z,12.90
2022-12-04T01:59:23.762Z,12.30
2022-12-04T02:02:14.079Z,12.50
2022-12-04T02:04:43.663Z,14.90
2022-12-04T02:07:12.134Z,14.00
2022-12-04T02:09:42.176Z,14.20
2022-12-04T02:12:33.025Z,13.20
2022-12-04T02:15:56.563Z,14.50
2022-12-04T02:18:43.263Z,13.40
2022-12-04T02:21:36.476Z,15.60
2022-12-04T02:24:25.744Z,17.20
2022-12-04T02:27:02.114Z,15.90
2022-12-04T02:29:53.318Z,16.10
2022-12-04T02:32:33.325Z,20.50
2022-12-04T02:35:09.942Z,24.30
2022-12-04T02:37:40.904Z,24.50
2022-12-04T02:42:42.787Z,18.00
2022-12-04T02:45:14.948Z,19.20
2022-12-04T02:47:45.563Z,16.60
2022-12-04T02:50:17.552Z,14.50
2022-12-04T02:52:57.673Z,17.30
2022-12-04T02:55:35.268Z,15.40
2022-12-04T02:58:11.606Z,16.50
2022-12-04T03:00:42.596Z,15.00
2022-12-04T03:03:17.077Z,15.10
2022-12-04T03:06:02.666Z,14.20
2022-12-04T03:08:39.317Z,15.90
2022-12-04T03:11:09.695Z,16.80
2022-12-04T03:13:46.409Z,13.90
2022-12-04T03:16:20.453Z,14.60
2022-12-04T03:19:09.962Z,12.90
2022-12-04T03:21:41.151Z,14.50
2022-12-04T03:24:20.228Z,13.70
2022-12-04T03:26:54.257Z,14.30
2022-12-04T03:29:47.989Z,15.60
2022-12-04T03:32:16.011Z,13.00
2022-12-04T03:34:51.303Z,12.80
2022-12-04T03:37:37.023Z,13.20
2022-12-04T03:40:10.655Z,12.40
2022-12-04T03:42:46.102Z,12.10
2022-12-04T03:45:22.816Z,12.90
2022-12-04T03:48:04.562Z,14.60
2022-12-04T03:50:43.087Z,14.40
2022-12-04T03:53:26.035Z,12.80
2022-12-04T03:56:16.523Z,15.50
2022-12-04T03:58:49.254Z,15.00
2022-12-04T04:01:23.198Z,14.60
2022-12-04T04:03:55.318Z,13.90
2022-12-04T04:06:36.766Z,13.20
2022-12-04T04:09:13.769Z,12.80
2022-12-04T04:11:49.591Z,12.70
2022-12-04T04:14:41.213Z,11.80
2022-12-04T04:17:38.245Z,13.30
2022-12-04T04:20:36.412Z,11.20
2022-12-04T04:23:26.666Z,10.50
2022-12-04T04:25:57.853Z,14.80
2022-12-04T04:28:29.960Z,11.60
2022-12-04T04:31:07.589Z,10.20
2022-12-04T04:33:47.819Z,11.40
2022-12-04T04:36:44.560Z,9.50
2022-12-04T04:39:28.250Z,14.20
2022-12-04T04:42:17.509Z,10.60
2022-12-04T04:45:00.196Z,10.50
2022-12-04T04:47:47.151Z,11.10
2022-12-04T04:50:17.196Z,10.90
2022-12-04T04:52:49.916Z,10.40
2022-12-04T04:55:19.867Z,13.20
2022-12-04T04:57:49.450Z,10.00
2022-12-04T05:00:23.449Z,11.90
2022-12-04T05:02:57.827Z,12.60
2022-12-04T05:05:27.659Z,13.40
2022-12-04T05:07:55.806Z,13.40
2022-12-04T05:10:24.609Z,10.90
2022-12-04T05:12:52.734Z,13.30
2022-12-04T05:15:21.802Z,10.40
2022-12-04T05:17:50.318Z,12.60
2022-12-04T05:20:18.780Z,11.20
2022-12-04T05:22:48.106Z,10.70
2022-12-04T05:25:15.878Z,9.80
2022-12-04T05:27:43.700Z,11.20
2022-12-04T05:30:12.386Z,9.60
2022-12-04T05:32:40.694Z,9.60
2022-12-04T05:35:12.115Z,9.90
2022-12-04T05:37:40.779Z,9.50
2022-12-04T05:40:09.440Z,9.70
2022-12-04T05:42:37.614Z,11.80
2022-12-04T05:45:05.832Z,9.90
2022-12-04T05:47:39.682Z,11.40
2022-12-04T05:50:09.671Z,9.80
2022-12-04T05:52:37.656Z,8.50
2022-12-04T05:55:06.715Z,8.30
2022-12-04T05:57:35.620Z,10.00
2022-12-04T06:00:05.230Z,9.30
2022-12-04T06:02:34.238Z,7.70
2022-12-04T06:05:02.421Z,7.70
2022-12-04T06:07:30.448Z,9.60
2022-12-04T06:09:58.830Z,10.00
2022-12-04T06:12:27.002Z,10.20
2022-12-04T06:14:55.835Z,7.90
2022-12-04T06:17:23.807Z,8.30
2022-12-04T06:19:53.792Z,8.60
2022-12-04T06:22:24.079Z,8.80
2022-12-04T06:24:51.992Z,11.10
2022-12-04T06:27:28.270Z,10.50
2022-12-04T06:29:57.090Z,9.50
2022-12-04T06:32:26.104Z,8.90
2022-12-04T06:34:55.720Z,9.20
2022-12-04T06:37:25.388Z,9.90
2022-12-04T06:39:53.598Z,9.70
2022-12-04T06:42:22.143Z,7.80
2022-12-04T06:44:50.133Z,7.60
2022-12-04T06:47:18.104Z,9.70
2022-12-04T06:49:49.686Z,9.30
2022-12-04T06:52:17.879Z,8.40
2022-12-04T06:54:45.915Z,7.40
2022-12-04T06:57:14.026Z,7.50
2022-12-04T06:59:42.479Z,7.80
2022-12-04T07:02:12.928Z,8.40
2022-12-04T07:04:42.752Z,9.80
2022-12-04T07:07:10.818Z,6.20
2022-12-04T07:09:38.810Z,8.00
2022-12-04T07:12:07.017Z,8.70
2022-12-04T07:14:34.818Z,6.90
2022-12-04T07:17:02.813Z,7.70
2022-12-04T07:19:30.769Z,9.80
2022-12-04T07:21:58.533Z,7.40
2022-12-04T07:24:26.289Z,6.50
2022-12-04T07:26:54.211Z,8.40
2022-12-04T07:29:22.206Z,9.90
2022-12-04T07:31:50.000Z,8.90
2022-12-04T07:34:17.801Z,8.40
2022-12-04T07:36:45.620Z,10.30
2022-12-04T07:39:13.505Z,9.50
2022-12-04T07:41:41.383Z,9.00
2022-12-04T07:44:09.201Z,7.40
2022-12-04T07:46:37.089Z,8.80
2022-12-04T07:49:04.867Z,10.40
2022-12-04T07:51:35.713Z,11.70
2022-12-04T07:54:04.647Z,7.70
2022-12-04T07:56:33.660Z,10.30
2022-12-04T07:59:02.407Z,12.00
2022-12-04T08:01:31.130Z,12.40
2022-12-04T08:04:01.057Z,10.50
2022-12-04T08:06:32.612Z,8.70
2022-12-04T08:09:06.171Z,7.70
2022-12-04T08:11:37.932Z,7.90
2022-12-04T08:14:08.932Z,9.20
2022-12-04T08:16:37.223Z,11.50
2022-12-04T08:19:05.571Z,10.30
2022-12-04T08:21:33.923Z,7.50
2022-12-04T08:24:02.691Z,11.40
2022-12-04T08:26:31.237Z,10.90
2022-12-04T08:29:01.880Z,11.30
2022-12-04T08:31:33.199Z,11.70
2022-12-04T08:34:04.357Z,11.80
2022-12-04T08:36:33.414Z,9.90
2022-12-04T08:39:01.293Z,10.40
2022-12-04T08:41:29.341Z,11.90
2022-12-04T08:43:58.127Z,10.70
2022-12-04T08:46:28.227Z,9.00
2022-12-04T08:48:57.874Z,7.90
2022-12-04T08:51:29.221Z,10.10
2022-12-04T08:54:02.997Z,10.00
2022-12-04T08:56:32.614Z,10.30
2022-12-04T08:59:02.878Z,10.00
2022-12-04T09:01:30.941Z,10.00
2022-12-04T09:03:59.136Z,10.60
2022-12-04T09:06:27.110Z,11.10
2022-12-04T09:08:56.279Z,13.50
2022-12-04T09:11:27.669Z,13.40
2022-12-04T09:13:56.109Z,8.40
2022-12-04T09:16:25.684Z,9.00
2022-12-04T09:18:55.423Z,13.20
2022-12-04T09:21:25.318Z,12.90
2022-12-04T09:23:55.571Z,10.60
2022-12-04T09:26:29.258Z,13.20
2022-12-04T09:29:00.606Z,10.70
2022-12-04T09:34:00.892Z,16.20
2022-12-04T09:36:29.337Z,10.70
2022-12-04T09:38:58.184Z,11.50
2022-12-04T09:41:57.347Z,13.00
2022-12-04T09:44:33.095Z,9.90
2022-12-04T09:47:05.008Z,9.90
2022-12-04T09:49:38.895Z,12.60
2022-12-04T09:52:24.192Z,11.30
2022-12-04T09:54:53.682Z,12.30
2022-12-04T09:57:43.624Z,10.90
2022-12-04T10:00:17.783Z,9.10
2022-12-04T10:02:51.826Z,11.60
2022-12-04T10:05:46.278Z,11.10
2022-12-04T10:08:29.172Z,10.40
2022-12-04T10:11:02.816Z,12.30
2022-12-04T10:14:06.528Z,12.30
2022-12-04T10:17:06.629Z,10.50
2022-12-04T10:19:53.176Z,10.20
2022-12-04T10:22:39.854Z,10.90
2022-12-04T10:25:25.313Z,10.60
2022-12-04T10:27:56.005Z,9.60
2022-12-04T10:30:27.266Z,9.10
2022-12-04T10:33:01.118Z,8.90
2022-12-04T10:35:32.322Z,16.80
2022-12-04T10:38:04.660Z,9.10
2022-12-04T10:40:38.003Z,8.70
2022-12-04T10:43:17.675Z,8.60
2022-12-04T10:45:45.470Z,10.10
2022-12-04T10:48:23.053Z,9.00
2022-12-04T10:50:50.850Z,8.70
2022-12-04T10:53:28.426Z,9.40
2022-12-04T10:55:56.386Z,8.30
2022-12-04T10:58:25.390Z,8.90
2022-12-04T11:01:05.570Z,9.10
2022-12-04T11:03:34.782Z,9.70
2022-12-04T11:06:08.831Z,9.40
2022-12-04T11:08:43.862Z,9.40
2022-12-04T11:11:17.924Z,9.70
2022-12-04T11:13:45.840Z,8.70
2022-12-04T11:16:35.175Z,7.50
2022-12-04T11:19:03.516Z,8.10
2022-12-04T11:21:32.494Z,9.60
2022-12-04T11:24:00.412Z,7.40
2022-12-04T11:26:30.687Z,8.00
2022-12-04T11:29:02.395Z,8.00
2022-12-04T11:31:31.717Z,8.80
2022-12-04T11:34:15.331Z,8.60
2022-12-04T11:36:43.349Z,6.70
2022-12-04T11:39:11.486Z,8.30
2022-12-04T11:41:39.853Z,6.60
2022-12-04T11:44:29.753Z,6.50
2022-12-04T11:47:02.013Z,6.20
2022-12-04T11:49:31.873Z,7.60
2022-12-04T11:52:15.720Z,9.00
2022-12-04T11:55:01.330Z,7.40
2022-12-04T11:57:29.402Z,7.30
2022-12-04T12:00:16.744Z,7.70
2022-12-04T12:03:13.528Z,7.30
2022-12-04T12:05:56.429Z,6.50
2022-12-04T12:08:36.516Z,7.20
2022-12-04T12:11:32.096Z,8.10
2022-12-04T12:14:15.600Z,7.80
2022-12-04T12:16:51.655Z,9.00
2022-12-04T12:19:35.396Z,8.40
2022-12-04T12:22:12.738Z,7.40
2022-12-04T12:24:59.407Z,9.10
2022-12-04T12:28:10.516Z,9.30
2022-12-04T12:31:13.513Z,9.40
2022-12-04T12:34:16.908Z,7.40
2022-12-04T12:36:54.202Z,8.10
2022-12-04T12:39:54.365Z,8.30
2022-12-04T12:42:28.997Z,8.00
2022-12-04T12:45:27.325Z,9.40
2022-12-04T12:47:59.257Z,7.00
2022-12-04T12:51:22.268Z,8.10
2022-12-04T12:53:53.639Z,12.00
2022-12-04T12:56:43.374Z,8.50
2022-12-04T12:59:19.576Z,9.10
2022-12-04T13:02:00.722Z,8.70
2022-12-04T13:04:42.865Z,9.40
2022-12-04T13:07:16.894Z,9.80
2022-12-04T13:09:52.253Z,7.90
2022-12-04T13:12:22.870Z,9.20
2022-12-04T13:14:50.735Z,9.40
2022-12-04T13:17:33.129Z,9.80
2022-12-04T13:20:10.287Z,9.20
2022-12-04T13:22:50.939Z,8.40
2022-12-04T13:25:37.628Z,9.80
2022-12-04T13:28:22.103Z,8.50
2022-12-04T13:30:50.263Z,8.60
2022-12-04T13:33:50.490Z,9.30
2022-12-04T13:36:27.406Z,12.30
2022-12-04T13:38:58.509Z,7.30
2022-12-04T13:41:28.302Z,8.50
2022-12-04T13:43:59.732Z,8.20
2022-12-04T13:46:42.647Z,7.50
2022-12-04T13:49:42.286Z,9.70
2022-12-04T13:52:36.815Z,8.40
2022-12-04T13:55:04.979Z,8.20
2022-12-04T13:57:32.949Z,11.10
2022-12-04T14:00:24.029Z,8.30
2022-12-04T14:02:55.985Z,6.70
2022-12-04T14:05:32.156Z,8.00
2022-12-04T14:08:21.169Z,9.30
2022-12-04T14:11:01.379Z,9.10
2022-12-04T14:13:36.804Z,8.30
2022-12-04T14:16:15.363Z,11.10
2022-12-04T14:18:48.992Z,11.00
2022-12-04T14:21:17.499Z,12.00
2022-12-04T14:23:45.908Z,14.30
2022-12-04T14:26:37.290Z,9.80
2022-12-04T14:29:34.255Z,9.40
2022-12-04T14:32:15.311Z,8.80
2022-12-04T14:34:44.904Z,10.00
2022-12-04T14:37:26.006Z,9.10
2022-12-04T14:39:57.363Z,9.50
2022-12-04T14:42:37.011Z,9.50
2022-12-04T14:45:30.984Z,8.50
2022-12-04T14:48:07.360Z,11.00
2022-12-04T14:51:05.060Z,12.60
2022-12-04T14:54:14.270Z,11.20
2022-12-04T14:56:53.738Z,10.80
2022-12-04T14:59:26.637Z,10.60
2022-12-04T15:01:56.247Z,21.30
2022-12-04T15:04:34.832Z,10.90
2022-12-04T15:07:04.735Z,10.30
2022-12-04T15:09:51.392Z,10.40
2022-12-04T15:12:33.819Z,9.90
2022-12-04T15:15:10.061Z,10.90
2022-12-04T15:17:38.502Z,10.20
2022-12-04T15:20:18.794Z,10.30
2022-12-04T15:22:47.628Z,11.80
2022-12-04T15:25:28.502Z,14.10
2022-12-04T15:28:05.853Z,12.10
2022-12-04T15:30:36.851Z,13.30
2022-12-04T15:33:05.687Z,10.00
2022-12-04T15:35:38.891Z,13.00
2022-12-04T15:38:10.598Z,12.30
2022-12-04T15:40:50.667Z,10.60
2022-12-04T15:43:26.898Z,12.50
2022-12-04T15:45:55.498Z,12.00
2022-12-04T15:48:32.368Z,10.20
2022-12-04T15:51:07.327Z,11.10
2022-12-04T15:53:45.272Z,16.40
2022-12-04T15:56:21.959Z,13.10
2022-12-04T15:59:03.045Z,14.40
2022-12-04T16:01:41.063Z,20.60
2022-12-04T16:04:23.255Z,13.20
2022-12-04T16:06:53.802Z,12.30
2022-12-04T16:09:24.818Z,14.20
2022-12-04T16:12:01.907Z,13.50
2022-12-04T16:14:30.183Z,12.00
2022-12-04T16:17:05.855Z,10.10
2022-12-04T16:19:39.986Z,10.80
2022-12-04T16:22:16.575Z,12.50
2022-12-04T16:24:47.535Z,12.90
2022-12-04T16:27:20.401Z,12.90
2022-12-04T16:29:52.663Z,12.10
2022-12-04T16:32:24.757Z,11.90
2022-12-04T16:34:52.798Z,8.60
2022-12-04T16:37:22.114Z,9.70
2022-12-04T16:39:50.841Z,10.10
2022-12-04T16:42:25.100Z,10.20
2022-12-04T16:44:53.864Z,12.50
2022-12-04T16:47:22.171Z,11.20
2022-12-04T16:49:52.168Z,10.80
2022-12-04T16:52:21.928Z,15.00
2022-12-04T16:54:51.309Z,13.70
2022-12-04T16:57:19.362Z,12.10
2022-12-04T16:59:48.193Z,13.50
2022-12-04T17:02:23.824Z,14.30
2022-12-04T17:04:57.815Z,15.60
2022-12-04T17:07:27.171Z,13.70
2022-12-04T17:09:55.182Z,12.50
2022-12-04T17:12:23.488Z,15.80
2022-12-04T17:14:52.832Z,13.90
2022-12-04T17:17:22.813Z,12.30
2022-12-04T17:19:51.346Z,12.50
2022-12-04T17:22:21.504Z,16.20
2022-12-04T17:24:56.286Z,12.70
2022-12-04T17:27:25.522Z,16.40
2022-12-04T17:29:54.634Z,14.60
2022-12-04T17:32:23.012Z,13.50
2022-12-04T17:34:53.470Z,11.70
2022-12-04T17:37:25.214Z,11.90
2022-12-04T17:39:53.423Z,11.10
2022-12-04T17:42:21.545Z,13.90
2022-12-04T17:44:49.556Z,13.80
2022-12-04T17:47:21.482Z,11.40
2022-12-04T17:49:49.668Z,13.80
2022-12-04T17:52:19.328Z,14.60
2022-12-04T17:54:49.545Z,13.10
2022-12-04T17:57:18.702Z,13.20
2022-12-04T17:59:46.773Z,14.50
2022-12-04T18:02:14.924Z,11.70
2022-12-04T18:04:43.311Z,15.60
2022-12-04T18:07:11.146Z,15.90
2022-12-04T18:09:39.660Z,11.40
2022-12-04T18:12:07.567Z,14.80
2022-12-04T18:14:35.639Z,16.00
2022-12-04T18:17:04.484Z,12.30
2022-12-04T18:19:32.514Z,25.30
2022-12-04T18:22:00.490Z,11.00
2022-12-04T18:24:28.657Z,10.30
2022-12-04T18:26:56.532Z,11.50
2022-12-04T18:29:26.135Z,11.80
2022-12-04T18:32:00.946Z,11.10
2022-12-04T18:34:29.112Z,12.70
2022-12-04T18:36:56.884Z,11.20
2022-12-04T18:39:26.307Z,13.20
2022-12-04T18:41:56.542Z,13.10
2022-12-04T18:44:25.032Z,11.70
2022-12-04T18:46:53.659Z,12.50
2022-12-04T18:49:21.835Z,12.20
2022-12-04T18:51:50.567Z,10.20
2022-12-04T18:54:22.308Z,13.50
2022-12-04T18:56:51.595Z,23.50
2022-12-04T18:59:22.902Z,11.00
2022-12-04T19:01:53.801Z,14.60
2022-12-04T19:04:26.887Z,13.20
2022-12-04T19:06:56.125Z,14.70
2022-12-04T19:10:08.931Z,17.00
2022-12-04T19:12:17.599Z,16.40
2022-12-04T19:14:46.282Z,15.80
2022-12-04T19:17:25.123Z,22.00
2022-12-04T19:19:53.022Z,19.50
2022-12-04T19:22:27.581Z,20.70
2022-12-04T19:24:55.747Z,18.10
2022-12-04T19:27:24.481Z,15.00
2022-12-04T19:29:54.081Z,14.60
2022-12-04T19:32:22.746Z,17.90
2022-12-04T19:34:53.192Z,14.50
2022-12-04T19:37:21.861Z,13.50
2022-12-04T19:39:50.084Z,18.00
2022-12-04T19:42:18.127Z,14.80
2022-12-04T19:44:49.182Z,16.70
2022-12-04T19:47:18.645Z,13.10
2022-12-04T19:49:47.391Z,12.60
2022-12-04T19:52:16.123Z,14.90
2022-12-04T19:54:47.405Z,19.30
2022-12-04T19:57:17.508Z,12.80
2022-12-04T19:59:46.844Z,11.90
2022-12-04T20:02:15.756Z,16.80
2022-12-04T20:04:44.567Z,14.30
2022-12-04T20:07:20.551Z,12.50
2022-12-04T20:09:52.652Z,14.10
2022-12-04T20:12:20.897Z,14.90
2022-12-04T20:14:48.821Z,13.10
2022-12-04T20:17:17.073Z,13.40
2022-12-04T20:19:47.511Z,12.60
2022-12-04T20:22:16.480Z,15.60
2022-12-04T20:27:15.014Z,19.10
2022-12-04T20:29:43.339Z,13.80
2022-12-04T20:32:11.669Z,16.40
2022-12-04T20:34:43.495Z,15.80
2022-12-04T20:37:12.115Z,12.60
2022-12-04T20:39:40.630Z,15.50
2022-12-04T20:42:15.770Z,19.70
2022-12-04T20:44:47.062Z,34.30
2022-12-04T20:49:59.212Z,14.40
2022-12-04T20:52:27.104Z,13.90
2022-12-04T20:54:55.199Z,13.10
2022-12-04T20:57:23.508Z,17.70
2022-12-04T20:59:54.412Z,15.40
2022-12-04T21:02:22.803Z,16.00
2022-12-04T21:04:51.127Z,20.60
2022-12-04T21:07:23.880Z,19.20
2022-12-04T21:09:59.554Z,17.20
2022-12-04T21:12:50.728Z,17.40
2022-12-04T21:15:38.958Z,17.80
2022-12-04T21:18:08.088Z,16.10
2022-12-04T21:20:37.221Z,15.30
2022-12-04T21:23:07.951Z,21.30
2022-12-04T21:25:37.935Z,20.60
2022-12-04T21:28:10.571Z,20.50
2022-12-04T21:30:38.703Z,20.20
2022-12-04T21:33:07.824Z,18.70
2022-12-04T21:35:40.571Z,15.50
2022-12-04T21:38:10.260Z,16.70
2022-12-04T21:40:42.353Z,17.20
2022-12-04T21:43:11.382Z,21.50
2022-12-04T21:45:39.993Z,24.80
2022-12-04T21:48:08.038Z,19.20
2022-12-04T21:50:38.247Z,18.00
2022-12-04T21:53:11.130Z,16.60
2022-12-04T21:55:40.927Z,18.00
2022-12-04T21:58:08.717Z,19.10
2022-12-04T22:00:37.796Z,27.70
2022-12-04T22:03:06.321Z,17.30
2022-12-04T22:05:34.468Z,19.00
2022-12-04T22:08:02.575Z,17.40
2022-12-04T22:10:30.593Z,16.70
2022-12-04T22:12:59.202Z,18.20
2022-12-04T22:15:26.993Z,18.50
2022-12-04T22:17:55.347Z,17.90
2022-12-04T22:20:23.651Z,19.00
2022-12-04T22:22:54.316Z,17.50
2022-12-04T22:25:22.887Z,18.00
2022-12-04T22:27:53.375Z,17.50
2022-12-04T22:30:21.388Z,21.20
2022-12-04T22:32:50.006Z,17.80
2022-12-04T22:35:22.017Z,19.50
2022-12-04T22:37:51.009Z,22.10
2022-12-04T22:40:19.599Z,19.20
2022-12-04T22:42:48.077Z,20.30
2022-12-04T22:45:17.454Z,24.40
2022-12-04T22:47:47.204Z,16.60
2022-12-04T22:50:15.714Z,15.30
2022-12-04T22:52:47.575Z,16.60
2022-12-04T22:55:16.766Z,18.80
2022-12-04T22:57:48.327Z,17.30
2022-12-04T23:00:18.279Z,19.60
2022-12-04T23:02:50.336Z,21.50
2022-12-04T23:05:19.202Z,17.90
2022-12-04T23:07:51.139Z,19.80
2022-12-04T23:10:19.064Z,16.00
2022-12-04T23:12:50.281Z,16.80
2022-12-04T23:15:18.862Z,18.60
2022-12-04T23:17:51.802Z,21.70
2022-12-04T23:20:20.760Z,16.50
2022-12-04T23:22:55.324Z,18.40
2022-12-04T23:25:25.255Z,19.50
2022-12-04T23:27:53.963Z,16.70
2022-12-04T23:30:27.492Z,20.90
2022-12-04T23:33:04.574Z,21.00
2022-12-04T23:35:32.469Z,16.10
2022-12-04T23:38:00.346Z,17.80
2022-12-04T23:40:29.367Z,21.30
2022-12-04T23:42:57.156Z,20.00
2022-12-04T23:45:24.907Z,17.90
2022-12-04T23:47:52.807Z,17.60
2022-12-04T23:50:20.799Z,18.90
2022-12-04T23:52:48.577Z,16.70
2022-12-04T23:55:16.544Z,20.20
2022-12-04T23:57:44.347Z,23.20
